Time;durP1;ratioP1;P1;durP2;ratioP2;P2;SDS_P1;SDS_P2;PMS_P1;PMS_P2;Temp;Humidity;BMP_temperature;BMP_pressure;BME280_temperature;BME280_humidity;BME280_pressure;Samples;Min_cycle;Max_cycle;Signal;HPM_P1;HPM_P2
2019/04/11 00:00:53;;;;;;;64.3;53.5;;;;;;;;;;;;;
2019/04/11 00:03:12;;;;;;;61.3;50.9;;;;;;;;;;;;;
2019/04/11 00:05:38;;;;;;;65.2;50.8;;;;;;;;;;;;;
2019/04/11 00:08:03;;;;;;;61.7;50.4;;;;;;;;;;;;;
2019/04/11 00:10:29;;;;;;;62.4;49.1;;;;;;;;;;;;;
2019/04/11 00:12:54;;;;;;;61.2;47.9;;;;;;;;;;;;;
2019/04/11 00:15:20;;;;;;;57.3;47.4;;;;;;;;;;;;;
2019/04/11 00:17:44;;;;;;;59.9;45.6;;;;;;;;;;;;;
2019/04/11 00:20:10;;;;;;;55.7;45.2;;;;;;;;;;;;;
2019/04/11 00:22:35;;;;;;;58.4;45.5;;;;;;;;;;;;;
2019/04/11 00:25:00;;;;;;;51;43.3;;;;;;;;;;;;;
2019/04/11 00:27:25;;;;;;;54.9;45.1;;;;;;;;;;;;;
2019/04/11 00:29:51;;;;;;;53.8;44.1;;;;;;;;;;;;;
2019/04/11 00:32:15;;;;;;;57.3;45.2;;;;;;;;;;;;;
2019/04/11 00:34:42;;;;;;;54.8;45;;;;;;;;;;;;;
2019/04/11 00:37:07;;;;;;;53.8;43.6;;;;;;;;;;;;;
2019/04/11 00:39:32;;;;;;;57.3;45;;;;;;;;;;;;;
2019/04/11 00:41:57;;;;;;;56;44.9;;;;;;;;;;;;;
2019/04/11 00:44:22;;;;;;;53.6;45.7;;;;;;;;;;;;;
2019/04/11 00:46:47;;;;;;;56.7;45.7;;;;;;;;;;;;;
2019/04/11 00:49:12;;;;;;;53.1;43.5;;;;;;;;;;;;;
2019/04/11 00:51:39;;;;;;;51.7;40.7;;;;;;;;;;;;;
2019/04/11 00:54:04;;;;;;;51.9;41.2;;;;;;;;;;;;;
2019/04/11 00:56:29;;;;;;;50.3;40.2;;;;;;;;;;;;;
2019/04/11 00:58:54;;;;;;;48.9;38.7;;;;;;;;;;;;;
2019/04/11 01:01:20;;;;;;;48.7;39.5;;;;;;;;;;;;;
2019/04/11 01:03:45;;;;;;;45;36.9;;;;;;;;;;;;;
2019/04/11 01:06:10;;;;;;;45;36.6;;;;;;;;;;;;;
2019/04/11 01:08:35;;;;;;;45;35.8;;;;;;;;;;;;;
2019/04/11 01:11:00;;;;;;;44.3;35.6;;;;;;;;;;;;;
2019/04/11 01:13:25;;;;;;;38.9;31.2;;;;;;;;;;;;;
2019/04/11 01:15:56;;;;;;;38.6;31;;;;;;;;;;;;;
2019/04/11 01:18:16;;;;;;;39.2;29.5;;;;;;;;;;;;;
2019/04/11 01:20:41;;;;;;;37.9;31.1;;;;;;;;;;;;;
2019/04/11 01:23:06;;;;;;;36.6;28.4;;;;;;;;;;;;;
2019/04/11 01:25:33;;;;;;;33;26.2;;;;;;;;;;;;;
2019/04/11 01:27:58;;;;;;;33.2;25.8;;;;;;;;;;;;;
2019/04/11 01:30:28;;;;;;;33.2;25.4;;;;;;;;;;;;;
2019/04/11 01:32:48;;;;;;;32.7;23;;;;;;;;;;;;;
2019/04/11 01:35:13;;;;;;;29.6;22.8;;;;;;;;;;;;;
2019/04/11 01:37:38;;;;;;;30.3;21.8;;;;;;;;;;;;;
2019/04/11 01:40:04;;;;;;;26.5;20.3;;;;;;;;;;;;;
2019/04/11 01:42:30;;;;;;;29.5;21;;;;;;;;;;;;;
2019/04/11 01:44:54;;;;;;;26.4;20;;;;;;;;;;;;;
2019/04/11 01:47:27;;;;;;;26.5;19;;;;;;;;;;;;;
2019/04/11 01:49:44;;;;;;;25.7;19.3;;;;;;;;;;;;;
2019/04/11 01:52:09;;;;;;;25.5;18.9;;;;;;;;;;;;;
2019/04/11 01:54:35;;;;;;;22.9;18.3;;;;;;;;;;;;;
2019/04/11 01:57:00;;;;;;;28.2;19.6;;;;;;;;;;;;;
2019/04/11 01:59:25;;;;;;;23.8;18.2;;;;;;;;;;;;;
2019/04/11 02:04:20;;;;;;;24.4;18.5;;;;;;;;;;;;;
2019/04/11 02:06:40;;;;;;;25.1;18.3;;;;;;;;;;;;;
2019/04/11 02:09:07;;;;;;;25.3;17.8;;;;;;;;;;;;;
2019/04/11 02:11:32;;;;;;;23.6;17.4;;;;;;;;;;;;;
2019/04/11 02:13:59;;;;;;;23.4;17.8;;;;;;;;;;;;;
2019/04/11 02:16:24;;;;;;;23.8;17.4;;;;;;;;;;;;;
2019/04/11 02:18:50;;;;;;;22.5;17.6;;;;;;;;;;;;;
2019/04/11 02:21:15;;;;;;;26.1;17.8;;;;;;;;;;;;;
2019/04/11 02:23:50;;;;;;;25.1;18;;;;;;;;;;;;;
2019/04/11 02:26:12;;;;;;;24.4;18;;;;;;;;;;;;;
2019/04/11 02:28:30;;;;;;;23.3;17.2;;;;;;;;;;;;;
2019/04/11 02:30:56;;;;;;;25.3;17.3;;;;;;;;;;;;;
2019/04/11 02:33:20;;;;;;;23.4;17;;;;;;;;;;;;;
2019/04/11 02:35:46;;;;;;;25.3;17.5;;;;;;;;;;;;;
2019/04/11 02:38:11;;;;;;;23.7;17.6;;;;;;;;;;;;;
2019/04/11 02:40:36;;;;;;;24.1;17.8;;;;;;;;;;;;;
2019/04/11 02:43:01;;;;;;;22.1;17.5;;;;;;;;;;;;;
2019/04/11 02:45:26;;;;;;;24.8;18.8;;;;;;;;;;;;;
2019/04/11 02:47:51;;;;;;;23.9;17.6;;;;;;;;;;;;;
2019/04/11 02:50:16;;;;;;;23.9;17.9;;;;;;;;;;;;;
2019/04/11 02:52:41;;;;;;;24.9;17.7;;;;;;;;;;;;;
2019/04/11 02:55:07;;;;;;;24.9;18.3;;;;;;;;;;;;;
2019/04/11 02:57:32;;;;;;;24.1;18.6;;;;;;;;;;;;;
2019/04/11 02:59:57;;;;;;;25.9;18.5;;;;;;;;;;;;;
2019/04/11 03:02:22;;;;;;;26.1;18;;;;;;;;;;;;;
2019/04/11 03:04:47;;;;;;;24.9;18.2;;;;;;;;;;;;;
2019/04/11 03:07:12;;;;;;;26.4;18.8;;;;;;;;;;;;;
2019/04/11 03:09:38;;;;;;;23.1;18;;;;;;;;;;;;;
2019/04/11 03:12:03;;;;;;;25;19;;;;;;;;;;;;;
2019/04/11 03:14:30;;;;;;;24.6;18.8;;;;;;;;;;;;;
2019/04/11 03:16:55;;;;;;;25.5;18.9;;;;;;;;;;;;;
2019/04/11 03:19:20;;;;;;;25.8;19.5;;;;;;;;;;;;;
2019/04/11 03:21:45;;;;;;;26.2;18.9;;;;;;;;;;;;;
2019/04/11 03:24:10;;;;;;;24.8;18.8;;;;;;;;;;;;;
2019/04/11 03:26:35;;;;;;;24.1;19.1;;;;;;;;;;;;;
2019/04/11 03:29:00;;;;;;;26.8;19.8;;;;;;;;;;;;;
2019/04/11 03:31:25;;;;;;;24.1;19.2;;;;;;;;;;;;;
2019/04/11 03:33:50;;;;;;;28.3;19.4;;;;;;;;;;;;;
2019/04/11 03:36:16;;;;;;;24.8;19;;;;;;;;;;;;;
2019/04/11 03:38:41;;;;;;;26.5;19.4;;;;;;;;;;;;;
2019/04/11 03:41:06;;;;;;;23.3;18.2;;;;;;;;;;;;;
2019/04/11 03:43:31;;;;;;;26.8;19.6;;;;;;;;;;;;;
2019/04/11 03:45:56;;;;;;;30.6;20.9;;;;;;;;;;;;;
2019/04/11 03:48:22;;;;;;;26.5;19.8;;;;;;;;;;;;;
2019/04/11 03:50:47;;;;;;;28.2;20;;;;;;;;;;;;;
2019/04/11 03:53:12;;;;;;;27.2;20.3;;;;;;;;;;;;;
2019/04/11 03:55:37;;;;;;;28.6;20.5;;;;;;;;;;;;;
2019/04/11 03:58:03;;;;;;;26.7;20.4;;;;;;;;;;;;;
2019/04/11 04:02:50;;;;;;;27.9;20.6;;;;;;;5.57;70.1123;956.9796;;;;
2019/04/11 04:05:15;;;;;;;28;20.5;;;;;;;5.54;70.99707;957.0633;;;;
2019/04/11 04:07:43;;;;;;;26.3;21.2;;;;;;;5.69;70.89648;957.0875;;;;
2019/04/11 04:10:08;;;;;;;27.7;21;;;;;;;5.55;71.96973;957.0277;;;;
2019/04/11 04:12:33;;;;;;;26.4;20.5;;;;;;;5.64;69.02832;957.033;;;;
2019/04/11 04:15:15;;;;;;;27.9;20.9;;;;;;;5.53;69.83203;956.9749;;;;
2019/04/11 04:20:03;;;;;;;27.6;20.3;;;;;;;5.51;69.97656;957.0533;;;;
2019/04/11 04:22:25;;;;;;;28.1;20.6;;;;;;;5.43;70.36328;957.0767;;;;
2019/04/11 04:24:44;;;;;;;31.4;21.7;;;;;;;5.3;70.0791;957.0795;;;;
2019/04/11 04:27:09;;;;;;;28;21.1;;;;;;;5.33;69.62793;957.1197;;;;
2019/04/11 04:29:36;;;;;;;30.3;21.9;;;;;;;5.4;69.45801;957.147;;;;
2019/04/11 04:32:01;;;;;;;30;21.6;;;;;;;5.32;70.09473;957.1457;;;;
2019/04/11 04:34:26;;;;;;;28.9;21.1;;;;;;;5.46;68.83984;957.1501;;;;
2019/04/11 04:36:51;;;;;;;29.6;21.9;;;;;;;5.39;69.50098;957.2371;;;;
2019/04/11 04:39:16;;;;;;;28.8;20.9;;;;;;;5.42;68.51367;957.205;;;;
2019/04/11 04:41:41;;;;;;;28.9;21;;;;;;;5.28;69.3457;957.2132;;;;
2019/04/11 04:44:06;;;;;;;28.5;21.4;;;;;;;5.31;69.28418;957.2098;;;;
2019/04/11 04:46:32;;;;;;;30;21.9;;;;;;;5.21;69.1416;957.2144;;;;
2019/04/11 04:48:58;;;;;;;30;22.4;;;;;;;5.39;68.37207;957.1989;;;;
2019/04/11 04:51:23;;;;;;;30.4;22.1;;;;;;;5.28;68.98242;957.2633;;;;
2019/04/11 04:53:49;;;;;;;29.7;21.8;;;;;;;5.27;68.3877;957.3067;;;;
2019/04/11 04:56:15;;;;;;;28.3;21.9;;;;;;;5.23;68.40332;957.264;;;;
2019/04/11 04:58:41;;;;;;;28.7;22;;;;;;;5.24;68.55273;957.3013;;;;
2019/04/11 05:01:06;;;;;;;27.6;21.5;;;;;;;5.21;68.54883;957.2612;;;;
2019/04/11 05:03:33;;;;;;;32.8;22.6;;;;;;;5.15;69.0293;957.3721;;;;
2019/04/11 05:05:58;;;;;;;30.5;22.6;;;;;;;5.16;68.82617;957.3627;;;;
2019/04/11 05:08:24;;;;;;;28.7;21.2;;;;;;;5.11;68.70215;957.4522;;;;
2019/04/11 05:11:02;;;;;;;29.4;22.5;;;;;;;4.98;69.12695;957.3873;;;;
2019/04/11 05:13:28;;;;;;;29.1;21.7;;;;;;;5.11;68.60156;957.4729;;;;
2019/04/11 05:15:53;;;;;;;28.1;21.7;;;;;;;5.25;68.14551;957.4688;;;;
2019/04/11 05:18:18;;;;;;;28.2;22;;;;;;;5.17;68.40625;957.5055;;;;
2019/04/11 05:20:43;;;;;;;28.8;21.8;;;;;;;5.26;68.19141;957.4473;;;;
2019/04/11 05:23:09;;;;;;;29.5;22.2;;;;;;;5.2;68.84277;957.5076;;;;
2019/04/11 05:25:34;;;;;;;29.8;22.1;;;;;;;5.12;68.69434;957.5522;;;;
2019/04/11 05:27:59;;;;;;;29.1;21.7;;;;;;;5.27;68.06738;957.5268;;;;
2019/04/11 05:30:25;;;;;;;29.8;22.5;;;;;;;5.2;68.4209;957.533;;;;
2019/04/11 05:32:50;;;;;;;30;21.8;;;;;;;5.15;67.84473;957.5536;;;;
2019/04/11 05:35:15;;;;;;;33.3;21.6;;;;;;;5.14;68.22949;957.5424;;;;
2019/04/11 05:37:40;;;;;;;28.1;21.4;;;;;;;5.05;68.51172;957.5036;;;;
2019/04/11 05:40:08;;;;;;;32.1;21.8;;;;;;;5.24;67.83691;957.6177;;;;
2019/04/11 05:42:34;;;;;;;31.1;22.3;;;;;;;5.08;68.41504;957.5642;;;;
2019/04/11 05:45:00;;;;;;;30.4;22.3;;;;;;;5.11;68.14551;957.5783;;;;
2019/04/11 05:47:25;;;;;;;29.3;22;;;;;;;5.01;68.74512;957.579;;;;
2019/04/11 05:49:55;;;;;;;28.4;21.4;;;;;;;4.95;68.95117;957.6047;;;;
2019/04/11 05:52:15;;;;;;;29.7;21.3;;;;;;;5;68.70801;957.6348;;;;
2019/04/11 05:54:44;;;;;;;31.5;22.5;;;;;;;5.04;68.7168;957.6011;;;;
2019/04/11 05:57:07;;;;;;;31.1;22.3;;;;;;;5.05;69.02539;957.6258;;;;
2019/04/11 05:59:33;;;;;;;27.5;21.8;;;;;;;5.03;69.35156;957.6783;;;;
2019/04/11 06:02:03;;;;;;;30.9;23.3;;;;;;;4.92;70.9043;957.5909;;;;
2019/04/11 06:09:26;;;;;;;27.8;21.9;;;;;;;4.84;70.76563;957.6149;;;;
2019/04/11 06:12:03;;;;;;;30.6;22.3;;;;;;;4.81;71.14844;957.6379;;;;
2019/04/11 06:14:25;;;;;;;30.4;22.9;;;;;;;4.84;71.3584;957.6149;;;;
2019/04/11 06:16:47;;;;;;;30;22.5;;;;;;;4.81;70.5791;957.6426;;;;
2019/04/11 06:19:27;;;;;;;30.7;21.8;;;;;;;4.79;71.3623;957.6314;;;;
2019/04/11 06:21:46;;;;;;;30.5;22.1;;;;;;;4.81;70.38574;957.6467;;;;
2019/04/11 06:29:08;;;;;;;33.4;22.8;;;;;;;5.06;70.87305;957.7011;;;;
2019/04/11 06:34:02;;;;;;;27.7;21.6;;;;;;;5.19;69.94727;957.762;;;;
2019/04/11 06:36:41;;;;;;;29.5;22.3;;;;;;;5.25;69.55762;957.6978;;;;
2019/04/11 06:41:37;;;;;;;27.2;22.1;;;;;;;5.35;69.39258;957.8025;;;;
2019/04/11 06:44:29;;;;;;;29.3;21.8;;;;;;;5.17;69.23828;957.7592;;;;
2019/04/11 06:46:33;;;;;;;30.5;22;;;;;;;5.25;69.02344;957.8113;;;;
2019/04/11 06:51:13;;;;;;;30.7;22.6;;;;;;;5.59;68.54102;957.8881;;;;
2019/04/11 06:58:31;;;;;;;30.3;22.6;;;;;;;5.56;67.53418;957.9281;;;;
2019/04/11 07:00:58;;;;;;;31.1;22.6;;;;;;;5.68;67.33594;957.9047;;;;
2019/04/11 07:03:22;;;;;;;30.6;22.8;;;;;;;5.87;67.36523;957.9558;;;;
2019/04/11 07:05:43;;;;;;;31.7;22.5;;;;;;;5.9;67.49512;957.9619;;;;
2019/04/11 07:08:17;;;;;;;32.8;22.4;;;;;;;5.99;67.63477;957.9967;;;;
2019/04/11 07:10:44;;;;;;;31.1;23.3;;;;;;;5.93;67.90039;957.9634;;;;
2019/04/11 07:13:08;;;;;;;31;23.1;;;;;;;5.78;67.32715;957.9345;;;;
2019/04/11 07:15:43;;;;;;;32.6;23.2;;;;;;;5.69;66.96094;957.8912;;;;
2019/04/11 07:27:56;;;;;;;32.4;22.9;;;;;;;6.05;66.2627;957.9911;;;;
2019/04/11 07:32:35;;;;;;;30.5;22.5;;;;;;;6.28;65.28027;957.983;;;;
2019/04/11 07:37:36;;;;;;;30.5;22.6;;;;;;;6.34;65.7373;958.0452;;;;
2019/04/11 07:44:55;;;;;;;31.8;23.8;;;;;;;6.49;65.49609;958.0907;;;;
2019/04/11 07:47:23;;;;;;;34.8;24.6;;;;;;;6.32;65.62012;958.1696;;;;
2019/04/11 07:49:44;;;;;;;35.8;23.9;;;;;;;6.25;66.3623;958.1592;;;;
2019/04/11 07:52:16;;;;;;;31;23;;;;;;;6.41;65.49512;958.204;;;;
2019/04/11 07:54:40;;;;;;;32.6;23.8;;;;;;;6.34;65.65625;958.2151;;;;
2019/04/11 07:59:36;;;;;;;31;23.6;;;;;;;6.68;64.9541;958.1917;;;;
2019/04/11 08:02:13;;;;;;;34.6;23.6;;;;;;;6.62;65.52637;958.2615;;;;
2019/04/11 08:09:25;;;;;;;33.2;24.6;;;;;;;7.04;64.95117;958.3364;;;;
2019/04/11 08:14:15;;;;;;;33.2;24.2;;;;;;;6.92;66.81055;958.3731;;;;
2019/04/11 08:22:26;;;;;;;29.7;24.1;;;;;;;6.82;64.54199;958.4119;;;;
2019/04/11 08:23:50;;;;;;;30.6;23.2;;;;;;;7.28;62.39844;958.4207;;;;
2019/04/11 08:28:41;;;;;;;35.8;23.8;;;;;;;7.17;63.99902;958.4006;;;;
2019/04/11 08:31:40;;;;;;;33.1;24.6;;;;;;;6.8;64.73242;958.5076;;;;
2019/04/11 08:33:33;;;;;;;34.4;25;;;;;;;7.23;65.24316;958.4799;;;;
2019/04/11 08:38:31;;;;;;;32.6;24.7;;;;;;;7.09;64.41992;958.4681;;;;
2019/04/11 08:43:24;;;;;;;36.2;25.1;;;;;;;7.42;65.1123;958.5723;;;;
2019/04/11 08:45:49;;;;;;;29.8;24.1;;;;;;;7.65;62.85449;958.5338;;;;
2019/04/11 08:48:11;;;;;;;34.4;25.3;;;;;;;7.16;64.45508;958.5204;;;;
2019/04/11 08:50:40;;;;;;;34.4;25.4;;;;;;;7.03;65.70508;958.5793;;;;
2019/04/11 08:55:33;;;;;;;31.9;25;;;;;;;7.31;64.77441;958.5706;;;;
2019/04/11 08:58:06;;;;;;;33.7;25.6;;;;;;;7.31;63.46875;958.6041;;;;
2019/04/11 09:00:28;;;;;;;34.5;26.7;;;;;;;7.41;63.28711;958.5739;;;;
2019/04/11 09:02:48;;;;;;;35.1;26.3;;;;;;;7.25;64.9707;958.6223;;;;
2019/04/11 09:07:39;;;;;;;30.6;25.5;;;;;;;7.54;64.08789;958.6117;;;;
2019/04/11 09:12:25;;;;;;;34.1;26.7;;;;;;;7.48;64.27344;958.6436;;;;
2019/04/11 09:17:22;;;;;;;32.2;26.6;;;;;;;7.92;64.625;958.6482;;;;
2019/04/11 09:24:53;;;;;;;39.6;26.8;;;;;;;7.91;63.77441;958.8106;;;;
2019/04/11 09:29:27;;;;;;;35.3;27.3;;;;;;;7.47;63.85938;958.6906;;;;
2019/04/11 09:44:06;;;;;;;34.7;27.1;;;;;;;8.27;62.63477;958.767;;;;
2019/04/11 09:46:40;;;;;;;36.2;26.8;;;;;;;8.33;60.42773;958.7908;;;;
2019/04/11 09:53:46;;;;;;;36;28.2;;;;;;;8.26;62.66895;958.8189;;;;
2019/04/11 09:56:23;;;;;;;36.4;27.8;;;;;;;8.07;62.59473;958.8375;;;;
2019/04/11 09:58:35;;;;;;;35.2;27.2;;;;;;;8.41;60.54199;958.7922;;;;
2019/04/11 10:02:10;;;;;;;34.7;27.8;;;;;;;8.17;62.48242;958.8574;;;;
2019/04/11 10:03:28;;;;;;;36.1;26.3;;;;;;;8.08;62.67578;958.8152;;;;
2019/04/11 10:06:04;;;;;;;38.1;27.5;;;;;;;8.11;62.05078;958.8761;;;;
2019/04/11 10:15:48;;;;;;;36.6;28;;;;;;;8.01;61.71387;958.8392;;;;
2019/04/11 10:20:30;;;;;;;42.7;29.7;;;;;;;7.63;64.83496;958.9811;;;;
2019/04/11 10:30:46;;;;;;;40.9;28.4;;;;;;;7.23;66.31934;958.9762;;;;
2019/04/11 10:32:49;;;;;;;37.1;27.9;;;;;;;7.59;64.72461;959.0148;;;;
2019/04/11 10:35:27;;;;;;;39.1;28.1;;;;;;;7.89;64.96582;958.9778;;;;
2019/04/11 10:37:37;;;;;;;38.6;29.8;;;;;;;7.72;64.27441;959.0114;;;;
2019/04/11 10:40:28;;;;;;;36.4;28.4;;;;;;;8.02;63.8252;958.9869;;;;
2019/04/11 10:42:26;;;;;;;36.6;28.9;;;;;;;8.1;63.45898;958.9451;;;;
2019/04/11 10:47:18;;;;;;;37.4;28.1;;;;;;;8.3;61.50391;959.0653;;;;
2019/04/11 10:52:10;;;;;;;35.8;28.4;;;;;;;8.58;61.99219;959.0554;;;;
2019/04/11 10:54:33;;;;;;;37.4;28.7;;;;;;;8.46;61.70898;959.051;;;;
2019/04/11 10:59:37;;;;;;;37.5;28.7;;;;;;;8.81;59.85156;959.0886;;;;
2019/04/11 11:04:31;;;;;;;35.3;28.5;;;;;;;8.9;61.60059;959.1945;;;;
2019/04/11 11:06:55;;;;;;;35.5;29.3;;;;;;;8.62;62.10059;959.1194;;;;
2019/04/11 11:09:27;;;;;;;37.8;29.6;;;;;;;9.04;60.82715;959.1632;;;;
2019/04/11 11:11:48;;;;;;;40.4;30.7;;;;;;;8.9;61.55469;959.173;;;;
2019/04/11 11:16:39;;;;;;;39;30.1;;;;;;;9.18;61.04297;959.2172;;;;
2019/04/11 11:19:13;;;;;;;41.4;29.5;;;;;;;9.56;59.59863;959.1791;;;;
2019/04/11 11:21:28;;;;;;;39.7;30.3;;;;;;;8.97;61.71582;959.1484;;;;
2019/04/11 11:24:07;;;;;;;37.6;29.8;;;;;;;9.39;59.66699;959.1542;;;;
2019/04/11 11:26:26;;;;;;;38.8;29.9;;;;;;;9.92;60.47852;959.1208;;;;
2019/04/11 11:28:50;;;;;;;38.4;30.3;;;;;;;9.92;59.53418;959.1169;;;;
2019/04/11 11:31:14;;;;;;;39.2;29.4;;;;;;;10.08;58.11523;959.1758;;;;
2019/04/11 11:33:34;;;;;;;41.6;29.9;;;;;;;9.39;60.03711;959.1917;;;;
2019/04/11 11:38:25;;;;;;;48.5;32.7;;;;;;;10.01;57.71387;959.2303;;;;
2019/04/11 11:43:28;;;;;;;41.8;31.3;;;;;;;9.5;61.53613;959.2788;;;;
2019/04/11 11:45:57;;;;;;;41.9;31.4;;;;;;;9.88;61.11816;959.1975;;;;
2019/04/11 11:50:39;;;;;;;40.7;32.4;;;;;;;9.12;60.73438;959.2447;;;;
2019/04/11 11:55:36;;;;;;;38.6;31.4;;;;;;;9.49;59.99316;959.2925;;;;
2019/04/11 12:00:27;;;;;;;43.8;32.7;;;;;;;9.87;59.13574;959.2963;;;;
2019/04/11 12:03:05;;;;;;;41.5;32.5;;;;;;;10.42;57.88379;959.3121;;;;
2019/04/11 12:05:24;;;;;;;42.4;31.9;;;;;;;10.32;59.0918;959.2842;;;;
2019/04/11 12:07:46;;;;;;;42.5;32.4;;;;;;;10.38;56.8877;959.2856;;;;
2019/04/11 12:12:36;;;;;;;48;34;;;;;;;10.12;59.08984;959.2742;;;;
2019/04/11 12:15:17;;;;;;;44.4;33.7;;;;;;;10.58;58.41309;959.2687;;;;
2019/04/11 12:17:28;;;;;;;44.5;34;;;;;;;10.8;56.63086;959.2885;;;;
2019/04/11 12:19:53;;;;;;;41.4;34.1;;;;;;;10.41;58.67969;959.2825;;;;
2019/04/11 12:22:12;;;;;;;39.8;32.5;;;;;;;10.63;57.21973;959.2816;;;;
2019/04/11 12:24:54;;;;;;;55.5;36.7;;;;;;;10.31;58.13477;959.2592;;;;
2019/04/11 12:31:58;;;;;;;44.1;34.6;;;;;;;11.08;57.14063;959.31;;;;
2019/04/11 12:34:34;;;;;;;44.6;34.6;;;;;;;11.16;53.88184;959.2712;;;;
2019/04/11 12:36:47;;;;;;;41.9;33.5;;;;;;;11.48;55.62109;959.3338;;;;
2019/04/11 12:41:44;;;;;;;43.1;33.6;;;;;;;11.11;54.5332;959.3147;;;;
2019/04/11 12:48:58;;;;;;;46.9;36;;;;;;;11.81;53.29102;959.2333;;;;
2019/04/11 12:53:46;;;;;;;43.3;35.4;;;;;;;11.83;56.39551;959.1848;;;;
2019/04/11 12:56:22;;;;;;;44.2;36;;;;;;;12.6;51.48633;959.2258;;;;
2019/04/11 12:59:08;;;;;;;46.9;36.8;;;;;;;12.09;56.42871;959.1222;;;;
2019/04/11 13:06:04;;;;;;;44.4;36.5;;;;;;;12.89;53.77148;959.163;;;;
2019/04/11 13:10:50;;;;;;;45.1;34.2;;;;;;;13.03;50.67773;959.1133;;;;
2019/04/11 13:15:47;;;;;;;44.9;35.4;;;;;;;12.48;52.13379;959.1114;;;;
2019/04/11 13:18:18;;;;;;;46.4;36.9;;;;;;;12.41;52.29883;959.1836;;;;
2019/04/11 13:20:45;;;;;;;44.7;35.6;;;;;;;13.05;50.29785;959.1184;;;;
2019/04/11 13:23:09;;;;;;;45.3;36.3;;;;;;;14.14;48.31836;959.1316;;;;
2019/04/11 13:27:58;;;;;;;46.7;37;;;;;;;13.6;49.97852;959.1451;;;;
2019/04/11 13:30:47;;;;;;;44.9;36;;;;;;;12.7;51.89258;959.087;;;;
2019/04/11 13:32:59;;;;;;;44.8;36.8;;;;;;;13.68;49.47656;959.0837;;;;
2019/04/11 13:35:29;;;;;;;43.7;37.1;;;;;;;13.68;48.66309;959.0966;;;;
2019/04/11 13:40:26;;;;;;;47.8;37.2;;;;;;;13.42;50.42188;959.0977;;;;
2019/04/11 13:45:11;;;;;;;47.2;38.5;;;;;;;12.46;53.64941;959.135;;;;
2019/04/11 13:50:03;;;;;;;46.6;37.9;;;;;;;12.37;53.13965;959.1582;;;;
2019/04/11 13:52:36;;;;;;;52.2;39;;;;;;;11.92;52.85352;959.1242;;;;
2019/04/11 14:02:32;;;;;;;45.6;38.6;;;;;;;11.97;54.57324;959.0748;;;;
2019/04/11 14:04:49;;;;;;;47.8;38.2;;;;;;;12.53;52.55664;959.0165;;;;
2019/04/11 14:07:17;;;;;;;46.4;38.3;;;;;;;13.3;50.84961;959.022;;;;
2019/04/11 14:09:44;;;;;;;46.9;39.5;;;;;;;13.59;50.10547;959.043;;;;
2019/04/11 14:12:08;;;;;;;48.5;39.1;;;;;;;14.32;47.74512;959.0062;;;;
2019/04/11 14:14:33;;;;;;;49.1;39.9;;;;;;;13.13;50.01758;959.0533;;;;
2019/04/11 14:19:32;;;;;;;52.1;40.3;;;;;;;13.2;50.61719;959.0245;;;;
2019/04/11 14:21:52;;;;;;;47.7;39.7;;;;;;;11.9;53.36035;959.027;;;;
2019/04/11 14:26:54;;;;;;;48.5;39.6;;;;;;;12.17;52.81445;959.07;;;;
2019/04/11 14:29:29;;;;;;;51;41;;;;;;;11.71;54.30762;958.9969;;;;
2019/04/11 14:39:18;;;;;;;50;39.2;;;;;;;12.18;55.36328;959.022;;;;
2019/04/11 14:41:58;;;;;;;49.1;40.2;;;;;;;11.81;54.52832;959.0803;;;;
2019/04/11 14:44:07;;;;;;;50.9;39.7;;;;;;;11.84;55.66699;959.038;;;;
2019/04/11 14:49:07;;;;;;;49.4;39.6;;;;;;;11.56;55.89648;959.0485;;;;
2019/04/11 14:54:08;;;;;;;48.3;40.2;;;;;;;11.98;53.6709;959.0906;;;;
2019/04/11 14:56:34;;;;;;;52.1;40.6;;;;;;;11.75;55.74805;959.0311;;;;
2019/04/11 15:01:23;;;;;;;48.5;40.1;;;;;;;12.05;53.74902;959.0574;;;;
2019/04/11 15:04:07;;;;;;;48.5;40.1;;;;;;;12.15;51.97754;959.0678;;;;
2019/04/11 15:06:21;;;;;;;53.5;41.1;;;;;;;11.72;54.55273;959.1025;;;;
2019/04/11 15:08:47;;;;;;;52.8;40.8;;;;;;;11.78;54.76855;959.1264;;;;
2019/04/11 15:11:24;;;;;;;53.3;41.6;;;;;;;12.15;54.27148;959.0767;;;;
2019/04/11 15:13:30;;;;;;;48.5;40.3;;;;;;;12.42;52.20703;959.1096;;;;
2019/04/11 15:16:13;;;;;;;51.5;40.8;;;;;;;12.49;52.83008;959.1068;;;;
2019/04/11 15:18:24;;;;;;;52.7;41.9;;;;;;;12.52;51.36133;959.1248;;;;
2019/04/11 15:20:53;;;;;;;52.1;41.9;;;;;;;12.43;51.68652;959.1047;;;;
2019/04/11 15:23:18;;;;;;;48.1;40.9;;;;;;;12.53;52.20801;959.1361;;;;
2019/04/11 15:30:30;;;;;;;51.7;42.7;;;;;;;12;52.93262;959.2006;;;;
2019/04/11 15:33:15;;;;;;;51.5;42.2;;;;;;;12.53;51.6748;959.1578;;;;
2019/04/11 15:35:19;;;;;;;56.8;42.2;;;;;;;12.21;53.32813;959.125;;;;
2019/04/11 15:38:15;;;;;;;54.7;42.3;;;;;;;11.91;52.76953;959.185;;;;
2019/04/11 15:40:35;;;;;;;51.6;42.7;;;;;;;12.18;51.71484;959.2104;;;;
2019/04/11 15:45:31;;;;;;;52.1;41.8;;;;;;;11.86;52.87012;959.1428;;;;
2019/04/11 15:47:59;;;;;;;53.3;43;;;;;;;11.82;52.11133;959.1772;;;;
2019/04/11 15:52:40;;;;;;;53;42.5;;;;;;;11.42;51.65918;959.1484;;;;
2019/04/11 15:57:37;;;;;;;50.1;39.7;;;;;;;11.48;51.29492;959.2194;;;;
2019/04/11 16:00:09;;;;;;;53.5;40.6;;;;;;;11.75;50.6582;959.1802;;;;
2019/04/11 16:02:27;;;;;;;50.5;39.5;;;;;;;11.41;51.16113;959.1411;;;;
2019/04/11 16:04:59;;;;;;;49.4;39.3;;;;;;;11.72;50.35352;959.209;;;;
2019/04/11 16:09:36;;;;;;;49.1;39.2;;;;;;;11.6;51.31055;959.2011;;;;
2019/04/11 16:12:09;;;;;;;49;39.3;;;;;;;11.52;51.5791;959.1976;;;;
2019/04/11 16:14:28;;;;;;;50.2;40.6;;;;;;;11.48;52.60352;959.1929;;;;
2019/04/11 16:16:58;;;;;;;49.2;38.6;;;;;;;11.75;52;959.193;;;;
2019/04/11 16:21:59;;;;;;;51.9;40.5;;;;;;;11.27;53.66309;959.1818;;;;
2019/04/11 16:24:16;;;;;;;53.4;41.2;;;;;;;11.03;53.92285;959.2165;;;;
2019/04/11 16:31:31;;;;;;;50.5;39.6;;;;;;;11.03;54.32715;959.1909;;;;
2019/04/11 16:43:32;;;;;;;48.3;38;;;;;;;10.62;55.16504;959.2773;;;;
2019/04/11 16:48:22;;;;;;;46.9;37.3;;;;;;;10.58;54.97461;959.38;;;;
2019/04/11 16:51:05;;;;;;;47.7;36.4;;;;;;;10.46;54.9834;959.3368;;;;
2019/04/11 16:53:30;;;;;;;45.3;37.2;;;;;;;10.42;54.94238;959.324;;;;
2019/04/11 16:55:56;;;;;;;46.7;37.1;;;;;;;10.58;54.4209;959.3717;;;;
2019/04/11 16:58:21;;;;;;;48.5;37.8;;;;;;;10.57;54.95117;959.4189;;;;
2019/04/11 17:00:47;;;;;;;45;35.9;;;;;;;10.58;53.87793;959.3885;;;;
2019/04/11 17:03:12;;;;;;;42.3;35.7;;;;;;;10.61;53.8584;959.4149;;;;
2019/04/11 17:05:38;;;;;;;45.3;35.4;;;;;;;10.54;55.08594;959.4183;;;;
2019/04/11 17:12:53;;;;;;;46.9;36.9;;;;;;;10.37;55.1084;959.4281;;;;
2019/04/11 17:15:20;;;;;;;44.4;35.5;;;;;;;10.34;54.39063;959.452;;;;
2019/04/11 17:17:45;;;;;;;46;35.7;;;;;;;10.33;54.45801;959.432;;;;
2019/04/11 17:20:11;;;;;;;43.5;34.6;;;;;;;10.08;54.93359;959.4364;;;;
2019/04/11 17:22:36;;;;;;;44.2;35.9;;;;;;;10.11;55.87207;959.454;;;;
2019/04/11 17:25:01;;;;;;;45.2;35.6;;;;;;;10.03;56.05664;959.4283;;;;
2019/04/11 17:27:26;;;;;;;44.3;35.7;;;;;;;10.11;54.81055;959.4756;;;;
2019/04/11 17:29:52;;;;;;;45.7;36.2;;;;;;;9.93;55.56152;959.5282;;;;
2019/04/11 17:32:31;;;;;;;42.6;35.4;;;;;;;10.02;55.73438;959.5147;;;;
2019/04/11 17:35:00;;;;;;;45.5;35.3;;;;;;;9.77;56.19629;959.5366;;;;
2019/04/11 17:37:24;;;;;;;42.3;34.3;;;;;;;9.82;56.43359;959.5103;;;;
2019/04/11 17:39:50;;;;;;;49.4;37.5;;;;;;;9.77;56.85254;959.5237;;;;
2019/04/11 17:42:15;;;;;;;46.4;35.6;;;;;;;9.63;56.35156;959.6145;;;;
2019/04/11 17:44:40;;;;;;;45.4;34.8;;;;;;;9.46;57.38672;959.6149;;;;
2019/04/11 17:47:06;;;;;;;45.6;36.1;;;;;;;9.56;57.44727;959.66;;;;
2019/04/11 17:49:33;;;;;;;45.5;35;;;;;;;9.4;57.60938;959.6171;;;;
2019/04/11 17:51:57;;;;;;;47.4;35.7;;;;;;;9.39;57.79297;959.673;;;;
2019/04/11 17:54:22;;;;;;;45.9;35.8;;;;;;;9.37;57.70996;959.6153;;;;
2019/04/11 17:56:51;;;;;;;44.3;35.5;;;;;;;9.17;58.04883;959.6912;;;;
2019/04/11 17:59:15;;;;;;;49.2;36.2;;;;;;;9.04;58.49219;959.6786;;;;
2019/04/11 18:01:41;;;;;;;47.7;36.7;;;;;;;8.92;59.0293;959.7193;;;;
2019/04/11 18:04:05;;;;;;;44.5;35;;;;;;;8.91;59.52148;959.7336;;;;
2019/04/11 18:06:32;;;;;;;49.4;37;;;;;;;8.75;59.55664;959.7916;;;;
2019/04/11 18:08:57;;;;;;;46.4;36.6;;;;;;;8.66;60.0498;959.8644;;;;
2019/04/11 18:11:22;;;;;;;44.6;36;;;;;;;8.62;60.43555;959.872;;;;
2019/04/11 18:13:48;;;;;;;46.5;35.7;;;;;;;8.48;60.74805;959.8606;;;;
2019/04/11 18:16:13;;;;;;;49.1;37.8;;;;;;;8.44;60.92676;959.9832;;;;
2019/04/11 18:18:40;;;;;;;47.3;37.6;;;;;;;8.45;61.00879;959.9441;;;;
2019/04/11 18:21:06;;;;;;;49.3;37.4;;;;;;;8.34;61.17676;960.0474;;;;
2019/04/11 18:23:33;;;;;;;47;37.6;;;;;;;8.3;61.46777;960.09;;;;
2019/04/11 18:25:58;;;;;;;47.4;38.2;;;;;;;8.19;61.5332;960.1259;;;;
2019/04/11 18:28:23;;;;;;;46.8;37.5;;;;;;;8.17;61.56445;960.1024;;;;
2019/04/11 18:30:48;;;;;;;45.7;37.6;;;;;;;8.07;61.31055;960.209;;;;
2019/04/11 18:33:14;;;;;;;44.7;36.1;;;;;;;7.99;61.30957;960.2767;;;;
2019/04/11 18:35:40;;;;;;;47.6;36.6;;;;;;;7.93;62.06934;960.3208;;;;
2019/04/11 18:38:05;;;;;;;46.8;36.9;;;;;;;7.89;61.43164;960.3459;;;;
2019/04/11 18:40:32;;;;;;;47.7;36.6;;;;;;;7.82;61.69824;960.3091;;;;
2019/04/11 18:42:57;;;;;;;43.4;35.3;;;;;;;7.81;61.40918;960.4253;;;;
2019/04/11 18:45:24;;;;;;;43.9;35.4;;;;;;;7.74;61.1709;960.3894;;;;
2019/04/11 18:47:50;;;;;;;45.5;36.2;;;;;;;7.67;61.36719;960.54;;;;
2019/04/11 18:50:15;;;;;;;45.3;35.6;;;;;;;7.63;61.54395;960.459;;;;
2019/04/11 18:52:44;;;;;;;45.5;36.8;;;;;;;7.6;61.58594;960.5167;;;;
2019/04/11 18:55:16;;;;;;;46.6;35.9;;;;;;;7.56;61.35156;960.4653;;;;
2019/04/11 18:57:39;;;;;;;45.3;36.7;;;;;;;7.44;62.03418;960.5269;;;;
2019/04/11 19:00:05;;;;;;;44.2;35.8;;;;;;;7.36;61.92969;960.56;;;;
2019/04/11 19:02:31;;;;;;;50.7;35.8;;;;;;;7.35;61.5498;960.5687;;;;
2019/04/11 19:04:56;;;;;;;46;36.7;;;;;;;7.31;61.79688;960.6024;;;;
2019/04/11 19:07:22;;;;;;;45.8;35.7;;;;;;;7.24;61.66016;960.6259;;;;
2019/04/11 19:09:47;;;;;;;44.3;36.6;;;;;;;7.18;62.29395;960.6691;;;;
2019/04/11 19:12:12;;;;;;;44.6;35.9;;;;;;;7.13;62.01172;960.6739;;;;
2019/04/11 19:14:38;;;;;;;44.6;35.5;;;;;;;7.08;62.17676;960.6741;;;;
2019/04/11 19:17:02;;;;;;;43.1;35.1;;;;;;;7.05;61.99023;960.668;;;;
2019/04/11 19:19:32;;;;;;;39.9;33;;;;;;;6.93;62.43945;960.6406;;;;